Time;durP1;ratioP1;P1;durP2;ratioP2;P2;SDS_P1;SDS_P2;PMS_P1;PMS_P2;Temp;Humidity;BMP_temperature;BMP_pressure;BME280_temperature;BME280_humidity;BME280_pressure;Samples;Min_cycle;Max_cycle;Signal;HPM_P1;HPM_P2
2022/08/14 00:00:12;;;;;;;7.65;5.53;;;;;;;20.87;52.18;100912.97;5000800;28;20041;-91
2022/08/14 00:02:38;;;;;;;5.68;5.15;;;;;;;20.89;52.36;100916.38;4991268;28;20026;-91
2022/08/14 00:05:07;;;;;;;7.90;5.88;;;;;;;20.85;52.93;100913.09;5009228;28;20030;-91
2022/08/14 00:07:34;;;;;;;6.75;6.18;;;;;;;20.85;52.85;100907.69;5010282;28;20093;-92
2022/08/14 00:09:59;;;;;;;6.22;5.70;;;;;;;20.79;53.27;100905.56;5002582;28;20088;-90
2022/08/14 00:12:25;;;;;;;6.50;5.70;;;;;;;20.74;53.56;100899.75;4990978;28;20023;-90
2022/08/14 00:14:51;;;;;;;5.93;5.38;;;;;;;20.63;53.64;100898.00;5002505;28;20386;-91
2022/08/14 00:17:17;;;;;;;7.03;6.00;;;;;;;20.68;53.89;100903.00;5006721;28;20060;-90
2022/08/14 00:19:42;;;;;;;7.00;5.90;;;;;;;20.67;53.79;100898.59;4987334;28;20154;-90
2022/08/14 00:22:07;;;;;;;6.25;5.65;;;;;;;20.59;53.63;100890.34;4988890;28;20531;-92
2022/08/14 00:24:33;;;;;;;6.68;5.90;;;;;;;20.58;53.94;100891.34;5004696;28;20054;-92
2022/08/14 00:26:58;;;;;;;6.28;5.60;;;;;;;20.59;54.06;100885.78;5004646;28;20064;-91
2022/08/14 00:29:24;;;;;;;7.80;6.05;;;;;;;20.57;53.83;100886.94;5001988;28;20120;-93
2022/08/14 00:31:49;;;;;;;6.18;5.57;;;;;;;20.54;54.35;100879.94;5001192;28;20042;-92
2022/08/14 00:34:14;;;;;;;6.43;5.80;;;;;;;20.56;53.98;100887.91;5000761;28;20488;-92
2022/08/14 00:36:40;;;;;;;6.60;5.93;;;;;;;20.53;54.19;100877.38;4982314;28;20018;-92
2022/08/14 00:39:06;;;;;;;8.25;5.80;;;;;;;20.50;54.42;100872.25;4998191;28;20070;-91
2022/08/14 00:41:32;;;;;;;7.10;6.03;;;;;;;20.49;53.83;100868.69;4992659;28;20023;-92
2022/08/14 00:43:58;;;;;;;7.95;6.47;;;;;;;20.45;54.53;100867.25;4981416;28;20047;-92
2022/08/14 00:46:24;;;;;;;6.88;6.18;;;;;;;20.40;54.43;100862.25;4985093;28;20514;-91
2022/08/14 00:48:49;;;;;;;7.15;6.53;;;;;;;20.32;54.93;100861.25;5005244;28;20042;-92
2022/08/14 00:51:15;;;;;;;7.72;6.32;;;;;;;20.30;54.65;100860.53;4991374;28;20033;-92
2022/08/14 00:53:41;;;;;;;7.93;6.40;;;;;;;20.27;54.67;100868.91;4995684;28;20132;-91
2022/08/14 00:56:07;;;;;;;7.63;6.80;;;;;;;20.17;55.03;100852.69;4997136;28;20044;-90
2022/08/14 00:58:33;;;;;;;7.28;6.68;;;;;;;20.23;55.05;100862.97;4995792;28;20054;-91
2022/08/14 01:01:03;;;;;;;6.80;6.20;;;;;;;20.19;55.00;100858.84;4992959;28;20033;-91
2022/08/14 01:03:28;;;;;;;7.10;6.50;;;;;;;20.19;54.44;100845.31;4999618;28;20101;-91
2022/08/14 01:05:55;;;;;;;6.82;6.22;;;;;;;20.24;53.97;100842.19;4997306;28;20117;-91
2022/08/14 01:08:24;;;;;;;8.05;7.22;;;;;;;20.20;52.87;100838.91;4993559;28;20061;-90
2022/08/14 01:10:50;;;;;;;7.15;6.32;;;;;;;20.23;52.64;100838.63;4980049;28;20078;-90
2022/08/14 01:13:20;;;;;;;8.05;7.03;;;;;;;20.31;52.89;100836.06;4985629;28;20039;-90
2022/08/14 01:15:50;;;;;;;8.20;7.35;;;;;;;20.30;52.13;100834.34;4992430;28;20396;-91
2022/08/14 01:21:05;;;;;;;9.13;7.15;;;;;;;20.33;52.50;100825.13;5003663;28;20140;-90
2022/08/14 01:23:30;;;;;;;8.02;7.22;;;;;;;20.31;51.77;100827.09;5004776;28;20026;-91
2022/08/14 01:25:57;;;;;;;9.63;7.65;;;;;;;20.29;51.75;100827.25;5000738;28;20456;-90
2022/08/14 01:28:25;;;;;;;8.43;7.50;;;;;;;20.26;52.20;100829.38;5004053;28;20061;-90
2022/08/14 01:30:54;;;;;;;9.05;7.20;;;;;;;20.28;51.67;100825.56;4994300;28;20034;-91
2022/08/14 01:33:21;;;;;;;7.95;7.20;;;;;;;20.23;51.50;100821.53;4981083;28;20030;-90
2022/08/14 01:35:46;;;;;;;8.27;7.35;;;;;;;20.27;51.94;100822.97;4974335;28;20112;-91
2022/08/14 01:38:14;;;;;;;8.85;7.30;;;;;;;20.23;51.45;100816.13;5000179;28;20133;-91
2022/08/14 01:40:39;;;;;;;7.68;6.88;;;;;;;20.25;51.47;100820.41;4997330;28;20285;-91
2022/08/14 01:43:14;;;;;;;7.22;6.40;;;;;;;20.21;51.91;100824.41;4990408;28;20035;-91
2022/08/14 01:45:40;;;;;;;7.60;6.82;;;;;;;20.26;50.67;100823.97;5005581;28;20030;-91
2022/08/14 01:48:05;;;;;;;7.45;6.85;;;;;;;20.29;50.06;100829.94;5010190;28;20036;-91
2022/08/14 01:50:31;;;;;;;8.65;7.07;;;;;;;20.25;51.05;100825.81;4980658;28;20117;-92
2022/08/14 01:52:56;;;;;;;8.85;6.88;;;;;;;20.26;51.02;100832.94;4995605;28;20058;-91
2022/08/14 01:55:29;;;;;;;8.13;6.65;;;;;;;20.18;51.10;100821.97;5002595;28;20395;-90
2022/08/14 01:57:54;;;;;;;9.40;6.47;;;;;;;20.24;50.30;100826.81;5000464;28;20034;-91
2022/08/14 02:00:19;;;;;;;8.73;6.38;;;;;;;20.17;51.43;100825.66;5012643;28;20033;-90
2022/08/14 02:02:45;;;;;;;7.18;6.38;;;;;;;20.14;51.16;100817.84;4992214;28;20036;-90
2022/08/14 02:05:12;;;;;;;8.35;6.25;;;;;;;20.11;51.02;100816.28;4995815;28;20095;-91
2022/08/14 02:07:38;;;;;;;7.47;6.30;;;;;;;20.15;50.49;100815.00;5017403;28;20107;-91
2022/08/14 02:10:05;;;;;;;7.13;6.53;;;;;;;20.13;51.16;100813.44;5016474;28;20488;-90
2022/08/14 02:12:31;;;;;;;6.93;6.32;;;;;;;20.09;51.18;100812.84;4995359;28;20026;-91
2022/08/14 02:14:56;;;;;;;8.35;6.65;;;;;;;20.07;51.25;100814.84;5015538;28;20102;-91
2022/08/14 02:17:22;;;;;;;7.25;6.53;;;;;;;20.01;51.59;100807.28;5009804;28;20046;-90
2022/08/14 02:19:49;;;;;;;7.88;6.38;;;;;;;20.01;51.57;100803.75;5031097;28;20093;-91
2022/08/14 02:22:17;;;;;;;6.97;6.38;;;;;;;19.94;51.85;100813.38;5017877;28;20042;-91
2022/08/14 02:24:43;;;;;;;7.90;7.10;;;;;;;19.84;52.49;100808.81;5015677;28;20081;-91
2022/08/14 02:27:11;;;;;;;7.00;6.32;;;;;;;19.78;52.50;100804.00;5017437;28;20018;-90
2022/08/14 02:29:37;;;;;;;6.70;6.10;;;;;;;19.75;52.65;100809.66;5003300;28;20078;-90
2022/08/14 02:32:03;;;;;;;7.80;7.00;;;;;;;19.76;52.62;100816.75;4982550;28;20114;-91
2022/08/14 02:34:31;;;;;;;7.53;6.75;;;;;;;19.75;52.42;100811.50;5002062;28;20042;-91
2022/08/14 02:37:01;;;;;;;7.55;6.70;;;;;;;19.71;52.54;100807.38;5006833;28;20029;-90
2022/08/14 02:39:27;;;;;;;7.15;6.55;;;;;;;19.69;52.73;100812.94;4998761;28;20120;-91
2022/08/14 02:41:52;;;;;;;7.35;6.60;;;;;;;19.65;52.48;100801.53;4992517;28;20030;-91
2022/08/14 02:44:21;;;;;;;7.53;6.72;;;;;;;19.56;52.88;100809.56;4995982;28;20022;-91
2022/08/14 02:46:48;;;;;;;8.13;7.15;;;;;;;19.55;53.21;100802.47;4998268;28;20507;-91
2022/08/14 02:49:14;;;;;;;7.45;6.68;;;;;;;19.53;52.67;100804.47;4987980;28;20074;-91
2022/08/14 02:51:40;;;;;;;9.23;6.75;;;;;;;19.49;52.95;100809.28;4991980;28;20162;-91
2022/08/14 02:54:08;;;;;;;7.75;6.30;;;;;;;19.50;52.90;100807.44;4991903;28;20030;-92
2022/08/14 02:56:37;;;;;;;8.35;6.78;;;;;;;19.48;53.34;100801.28;5008279;28;20479;-91
2022/08/14 02:59:05;;;;;;;6.93;6.32;;;;;;;19.42;53.15;100800.84;4999394;28;20394;-90
2022/08/14 03:01:30;;;;;;;7.30;6.60;;;;;;;19.36;53.35;100796.00;4991012;28;20033;-90
2022/08/14 03:03:56;;;;;;;6.88;6.20;;;;;;;19.34;53.26;100795.28;4997845;28;20773;-91
2022/08/14 03:06:24;;;;;;;9.10;6.50;;;;;;;19.29;53.37;100786.75;5002612;28;20066;-92
2022/08/14 03:08:51;;;;;;;8.23;6.40;;;;;;;19.30;53.51;100791.13;4986431;28;20042;-92
2022/08/14 03:11:20;;;;;;;7.20;6.50;;;;;;;19.24;53.74;100785.44;4990947;28;20030;-91
2022/08/14 03:13:50;;;;;;;7.00;6.32;;;;;;;19.22;54.38;100790.97;4995262;28;20077;-91
2022/08/14 03:16:22;;;;;;;11.65;6.85;;;;;;;19.16;53.91;100788.81;4998783;28;20081;-91
2022/08/14 03:18:52;;;;;;;7.60;6.90;;;;;;;19.04;54.17;100789.88;4997290;28;20517;-91
2022/08/14 03:21:19;;;;;;;9.05;7.20;;;;;;;19.02;54.81;100798.13;4991834;28;20034;-91
2022/08/14 03:23:47;;;;;;;7.60;6.82;;;;;;;19.02;54.86;100789.16;4996227;28;20436;-90
2022/08/14 03:26:16;;;;;;;7.75;6.95;;;;;;;19.00;55.36;100785.75;5000942;28;20459;-90
2022/08/14 03:28:44;;;;;;;7.25;6.65;;;;;;;18.84;55.88;100776.28;4992534;28;20037;-92
2022/08/14 03:31:10;;;;;;;7.68;6.97;;;;;;;18.82;56.40;100782.81;4986266;28;20106;-92
2022/08/14 03:33:38;;;;;;;7.40;6.70;;;;;;;18.73;56.41;100781.78;5006562;28;20041;-92
2022/08/14 03:36:13;;;;;;;8.70;6.68;;;;;;;18.66;57.31;100776.00;5012622;28;20026;-91
2022/08/14 03:38:44;;;;;;;7.47;6.78;;;;;;;18.62;56.93;100769.16;4999165;28;20046;-91
2022/08/14 03:41:13;;;;;;;8.50;6.85;;;;;;;18.64;57.34;100774.41;5001255;28;20113;-91
2022/08/14 03:43:40;;;;;;;7.90;7.10;;;;;;;18.55;57.50;100765.28;5006511;28;20041;-91
2022/08/14 03:46:05;;;;;;;8.65;6.80;;;;;;;18.53;57.09;100775.34;4994587;28;20038;-91
2022/08/14 03:48:31;;;;;;;9.93;7.30;;;;;;;18.47;57.56;100770.47;5000472;28;20109;-91
2022/08/14 03:50:56;;;;;;;8.43;7.30;;;;;;;18.53;57.12;100778.03;5000284;28;20066;-92
2022/08/14 03:53:22;;;;;;;8.35;7.10;;;;;;;18.52;57.19;100770.94;4997209;28;20645;-91
2022/08/14 03:55:47;;;;;;;7.93;7.15;;;;;;;18.47;57.45;100772.31;5006853;28;20010;-92
2022/08/14 03:58:14;;;;;;;8.45;7.55;;;;;;;18.42;57.90;100770.00;5022075;28;20041;-90
2022/08/14 04:00:40;;;;;;;8.30;7.50;;;;;;;18.33;58.31;100766.25;5018187;28;20034;-91
2022/08/14 04:03:09;;;;;;;8.60;7.30;;;;;;;18.30;58.45;100774.59;5025395;28;20049;-92
2022/08/14 04:05:37;;;;;;;8.65;7.22;;;;;;;18.26;58.38;100764.22;5015220;28;20014;-91
2022/08/14 04:08:03;;;;;;;8.27;7.57;;;;;;;18.22;59.32;100776.22;5023931;28;20030;-90
2022/08/14 04:10:29;;;;;;;8.05;7.25;;;;;;;18.16;59.33;100770.38;5015135;28;20045;-89
2022/08/14 04:12:58;;;;;;;8.55;7.03;;;;;;;18.09;59.92;100761.09;5010840;28;20034;-91
2022/08/14 04:15:24;;;;;;;7.68;6.88;;;;;;;18.04;59.81;100765.16;5014240;28;20019;-90
2022/08/14 04:17:49;;;;;;;8.52;7.07;;;;;;;18.04;60.24;100765.16;5005011;28;20096;-91
2022/08/14 04:20:15;;;;;;;8.82;7.10;;;;;;;17.96;60.44;100763.09;4998536;28;20030;-91
2022/08/14 04:22:42;;;;;;;7.80;7.10;;;;;;;17.91;60.74;100754.56;4998812;28;20037;-91
2022/08/14 04:25:08;;;;;;;8.23;7.43;;;;;;;17.95;60.68;100765.94;4994501;28;20038;-92
2022/08/14 04:27:34;;;;;;;8.27;7.47;;;;;;;17.94;60.39;100758.84;4995414;28;20025;-90
2022/08/14 04:30:01;;;;;;;7.80;7.10;;;;;;;17.94;60.67;100759.69;4988453;28;20054;-91
2022/08/14 04:32:26;;;;;;;7.90;7.22;;;;;;;17.94;60.69;100758.84;5009479;28;20050;-90
2022/08/14 04:34:53;;;;;;;8.60;7.43;;;;;;;17.94;60.50;100756.16;5009856;28;20033;-91
2022/08/14 04:45:39;;;;;;;10.95;7.80;;;;;;;18.01;60.67;100735.78;5014754;28;20121;-91
2022/08/14 04:48:13;;;;;;;8.80;7.90;;;;;;;18.04;59.62;100739.09;5000763;28;20042;-92
2022/08/14 04:50:46;;;;;;;9.10;8.18;;;;;;;18.09;60.04;100738.69;4986072;28;20022;-91
2022/08/14 04:53:17;;;;;;;8.52;7.63;;;;;;;18.06;60.31;100725.50;5001493;28;20026;-92
2022/08/14 04:55:47;;;;;;;10.60;8.48;;;;;;;18.07;60.21;100727.22;5000933;28;20094;-92
2022/08/14 04:58:16;;;;;;;9.38;8.48;;;;;;;18.04;60.24;100725.63;4997755;28;20400;-91
2022/08/14 05:00:42;;;;;;;9.30;8.45;;;;;;;18.08;60.61;100729.75;4984890;28;20519;-91
2022/08/14 05:03:08;;;;;;;9.50;8.40;;;;;;;18.15;60.56;100725.56;4992296;28;20030;-91
2022/08/14 05:05:34;;;;;;;10.50;8.48;;;;;;;18.15;60.52;100720.19;4991029;28;20019;-90
2022/08/14 05:08:10;;;;;;;9.75;8.75;;;;;;;18.22;60.28;100723.19;4990162;28;20391;-92
2022/08/14 05:10:38;;;;;;;11.77;8.68;;;;;;;18.23;60.43;100727.63;4991059;28;20357;-93
2022/08/14 05:13:04;;;;;;;9.77;8.88;;;;;;;18.26;60.70;100726.50;4999059;28;20022;-91
2022/08/14 05:15:30;;;;;;;10.98;9.88;;;;;;;18.26;60.37;100730.03;4994290;28;20010;-91
2022/08/14 05:17:55;;;;;;;10.70;9.60;;;;;;;18.30;60.86;100725.25;4989871;28;20038;-92
2022/08/14 05:20:21;;;;;;;10.77;9.55;;;;;;;18.37;60.76;100729.13;4988896;28;20077;-91
2022/08/14 05:22:47;;;;;;;10.88;9.82;;;;;;;18.38;60.12;100723.59;4987073;28;20078;-91
2022/08/14 05:25:12;;;;;;;10.52;9.52;;;;;;;18.38;60.49;100729.00;4985699;28;20070;-90
2022/08/14 05:27:37;;;;;;;11.77;9.60;;;;;;;18.46;60.23;100722.09;4985418;28;20392;-91
2022/08/14 05:30:06;;;;;;;13.35;10.23;;;;;;;18.51;59.87;100725.25;4987566;28;20057;-90
2022/08/14 05:32:32;;;;;;;11.40;10.27;;;;;;;18.63;60.35;100726.88;4987398;28;20811;-90
2022/08/14 05:34:58;;;;;;;10.70;9.60;;;;;;;18.75;60.26;100717.75;4992327;28;20030;-91
2022/08/14 05:37:26;;;;;;;11.98;10.82;;;;;;;18.90;59.58;100724.53;4995469;28;20066;-92
2022/08/14 05:39:51;;;;;;;12.27;11.10;;;;;;;19.03;59.29;100718.91;4987835;28;20122;-90
2022/08/14 05:42:17;;;;;;;13.45;10.57;;;;;;;19.22;58.50;100730.75;4987521;28;20046;-92
2022/08/14 05:44:42;;;;;;;12.90;10.40;;;;;;;19.47;58.08;100722.16;4984347;28;20027;-91
2022/08/14 05:47:07;;;;;;;11.95;10.43;;;;;;;19.60;58.52;100720.06;4993895;28;20034;-92
2022/08/14 05:49:32;;;;;;;12.40;11.10;;;;;;;19.85;57.07;100707.91;4981238;28;20023;-91
2022/08/14 05:51:58;;;;;;;11.57;10.32;;;;;;;20.04;57.12;100711.63;4990692;28;20057;-88
2022/08/14 05:54:24;;;;;;;12.23;9.98;;;;;;;20.19;57.12;100709.31;4982192;28;20034;-87
2022/08/14 05:56:49;;;;;;;10.70;9.70;;;;;;;20.43;55.87;100723.25;4990674;28;20038;-89
2022/08/14 05:59:14;;;;;;;11.77;10.57;;;;;;;20.55;55.64;100715.84;4988512;28;20037;-87
2022/08/14 06:01:40;;;;;;;11.30;10.15;;;;;;;20.77;55.16;100723.63;4993371;28;20022;-88
2022/08/14 06:04:05;;;;;;;11.43;10.30;;;;;;;20.87;54.82;100705.53;4987614;28;20114;-88
2022/08/14 06:06:30;;;;;;;16.13;10.65;;;;;;;20.99;54.05;100697.22;4990143;28;20019;-90
2022/08/14 06:08:56;;;;;;;11.57;10.25;;;;;;;21.21;54.15;100715.78;4989921;28;20562;-89
2022/08/14 06:11:21;;;;;;;11.38;10.30;;;;;;;21.27;54.20;100709.75;4996508;28;20027;-90
2022/08/14 06:13:46;;;;;;;12.45;10.80;;;;;;;21.51;53.14;100720.06;4993440;28;20096;-90
2022/08/14 06:16:18;;;;;;;11.15;10.07;;;;;;;21.65;52.75;100713.25;4986603;28;20037;-90
2022/08/14 06:18:47;;;;;;;11.00;10.00;;;;;;;21.85;52.55;100711.25;4988729;28;20066;-91
2022/08/14 06:21:14;;;;;;;11.45;10.35;;;;;;;22.00;52.08;100711.59;4985156;28;20030;-90
2022/08/14 06:23:40;;;;;;;11.63;10.45;;;;;;;22.11;52.24;100711.34;4993304;28;20132;-91
2022/08/14 06:26:05;;;;;;;11.20;10.10;;;;;;;22.30;52.49;100704.94;4993903;28;20031;-91
2022/08/14 06:28:30;;;;;;;11.15;10.05;;;;;;;22.46;51.69;100707.78;4997011;28;20101;-90
2022/08/14 06:30:55;;;;;;;11.85;10.05;;;;;;;22.67;51.25;100704.69;5003540;28;20101;-92
2022/08/14 06:33:21;;;;;;;11.05;9.98;;;;;;;22.82;50.18;100702.22;5007477;28;20467;-91
2022/08/14 06:35:48;;;;;;;11.15;9.90;;;;;;;23.09;50.11;100706.66;5000361;28;20033;-92
2022/08/14 06:38:20;;;;;;;11.15;10.10;;;;;;;23.16;50.42;100705.00;5001638;28;20062;-91
2022/08/14 06:40:46;;;;;;;11.65;9.98;;;;;;;23.22;49.77;100707.03;5009124;28;20011;-91
2022/08/14 06:43:14;;;;;;;10.73;9.60;;;;;;;23.32;49.40;100696.03;5015580;28;20035;-90
2022/08/14 06:45:41;;;;;;;10.40;9.45;;;;;;;23.52;49.90;100697.47;5011923;28;20031;-91
2022/08/14 06:48:13;;;;;;;10.70;9.60;;;;;;;23.73;48.61;100699.75;5004097;28;20039;-91
2022/08/14 06:50:39;;;;;;;10.82;9.55;;;;;;;23.82;48.58;100690.59;5006126;28;20034;-92
2022/08/14 06:53:04;;;;;;;12.63;9.57;;;;;;;23.99;47.89;100691.47;5003101;28;20079;-90
2022/08/14 06:55:30;;;;;;;10.95;9.30;;;;;;;24.08;47.78;100686.91;5001047;28;20062;-92
2022/08/14 06:57:56;;;;;;;12.60;9.70;;;;;;;24.30;47.81;100690.81;5000553;28;20038;-91
2022/08/14 07:00:23;;;;;;;10.38;9.43;;;;;;;24.45;48.21;100699.13;4999936;28;20024;-90
2022/08/14 07:08:19;;;;;;;10.98;9.30;;;;;;;25.30;45.92;100683.13;4982770;28;20050;-90
2022/08/14 07:10:45;;;;;;;;;;;;;;;25.58;45.85;100686.16;4984983;28;20019;-91
2022/08/14 07:13:12;;;;;;;8.73;7.85;;;;;;;25.70;43.98;100681.16;4982588;28;19973;-91
2022/08/14 07:15:39;;;;;;;9.25;8.00;;;;;;;26.05;44.14;100688.78;4979575;28;20028;-89
2022/08/14 07:18:06;;;;;;;9.30;8.20;;;;;;;26.44;42.17;100686.91;4992701;28;20061;-92
2022/08/14 07:20:32;;;;;;;8.18;7.38;;;;;;;26.69;40.52;100682.94;4989474;28;20026;-94
2022/08/14 07:23:03;;;;;;;7.47;6.80;;;;;;;26.78;40.30;100678.22;4989792;28;20049;-92
2022/08/14 07:25:28;;;;;;;7.47;6.35;;;;;;;27.04;42.12;100683.22;4997523;28;20484;-92
2022/08/14 07:27:54;;;;;;;14.25;7.47;;;;;;;27.28;40.24;100687.56;4995950;28;20073;-92
2022/08/14 07:30:20;;;;;;;8.48;7.68;;;;;;;27.70;38.72;100689.53;5005111;28;20026;-91
2022/08/14 07:32:45;;;;;;;9.05;7.30;;;;;;;27.92;39.23;100681.34;4996992;28;20037;-91
2022/08/14 07:35:10;;;;;;;8.30;6.88;;;;;;;28.26;36.99;100686.97;4989759;28;20046;-95
2022/08/14 07:37:36;;;;;;;9.98;7.13;;;;;;;28.49;37.21;100678.53;4984429;28;20113;-92
2022/08/14 07:40:04;;;;;;;7.47;6.75;;;;;;;28.71;36.50;100684.78;4986756;28;20046;-94
2022/08/14 07:42:29;;;;;;;7.65;6.90;;;;;;;28.85;36.44;100672.03;4992132;28;20049;-92
2022/08/14 07:44:55;;;;;;;8.23;7.13;;;;;;;29.15;34.95;100678.13;4999275;28;20120;-93
2022/08/14 07:47:20;;;;;;;8.40;7.60;;;;;;;29.23;35.45;100675.22;4994256;28;20441;-92
2022/08/14 07:50:10;;;;;;;7.68;6.97;;;;;;;29.76;36.88;100678.16;4982282;28;20027;-93
2022/08/14 07:52:36;;;;;;;10.15;6.95;;;;;;;30.16;34.23;100666.41;4987921;28;20064;-93
2022/08/14 07:55:02;;;;;;;8.63;7.18;;;;;;;30.59;33.07;100686.03;4989622;28;20029;-92
2022/08/14 07:57:27;;;;;;;7.90;6.55;;;;;;;30.88;32.85;100681.97;4986482;28;20547;-90
2022/08/14 07:59:53;;;;;;;7.35;6.68;;;;;;;31.22;34.17;100682.72;4988364;28;20030;-91
2022/08/14 08:02:19;;;;;;;8.35;6.85;;;;;;;31.49;32.32;100681.59;4994300;28;20019;-90
2022/08/14 08:04:48;;;;;;;9.63;7.25;;;;;;;32.08;32.23;100684.22;4992477;28;20050;-91
2022/08/14 08:07:13;;;;;;;9.82;6.68;;;;;;;32.44;30.80;100689.03;4993488;28;20030;-91
2022/08/14 08:09:44;;;;;;;8.00;7.30;;;;;;;32.48;30.75;100679.22;4991304;28;20250;-92
2022/08/14 08:12:10;;;;;;;7.57;6.78;;;;;;;32.92;29.44;100685.59;4993772;28;20286;-94
2022/08/14 08:14:36;;;;;;;8.35;6.68;;;;;;;33.06;30.51;100680.78;5026950;28;20030;-93
2022/08/14 08:17:03;;;;;;;8.98;6.75;;;;;;;33.24;29.08;100678.03;5031326;28;20057;-88
2022/08/14 08:19:30;;;;;;;7.18;6.57;;;;;;;33.65;30.97;100676.41;5005025;28;20034;-87
2022/08/14 08:21:57;;;;;;;7.50;6.68;;;;;;;33.62;29.53;100671.41;5004405;28;20030;-88
2022/08/14 08:24:23;;;;;;;7.38;6.75;;;;;;;33.82;28.56;100655.38;5003217;28;20014;-89
2022/08/14 08:26:48;;;;;;;7.32;6.63;;;;;;;34.20;27.49;100666.06;5000857;28;20092;-88
2022/08/14 08:29:23;;;;;;;7.22;6.55;;;;;;;34.49;28.41;100657.06;4996412;28;20559;-88
2022/08/14 08:31:50;;;;;;;7.50;6.80;;;;;;;34.59;26.97;100649.88;4975033;28;20495;-91
2022/08/14 08:34:16;;;;;;;6.75;6.15;;;;;;;34.83;26.34;100663.69;4990317;28;20018;-89
2022/08/14 08:36:42;;;;;;;7.25;6.53;;;;;;;35.09;26.98;100665.94;4987745;28;20036;-86
2022/08/14 08:39:08;;;;;;;7.40;6.55;;;;;;;35.54;26.63;100670.75;4986611;28;20061;-90
2022/08/14 08:41:44;;;;;;;9.45;7.07;;;;;;;35.87;25.79;100672.75;4976606;28;20023;-86
2022/08/14 08:44:10;;;;;;;7.68;6.80;;;;;;;36.37;26.11;100673.88;4981303;28;20292;-89
2022/08/14 08:46:36;;;;;;;6.43;5.85;;;;;;;36.90;24.81;100666.94;4988207;28;20554;-89
2022/08/14 08:49:02;;;;;;;6.75;6.15;;;;;;;37.28;23.52;100662.44;4979637;28;20030;-88
2022/08/14 08:51:34;;;;;;;7.63;6.95;;;;;;;37.48;23.66;100665.50;4990250;28;20484;-88
2022/08/14 08:54:05;;;;;;;6.40;5.47;;;;;;;37.92;21.57;100668.19;4991395;28;20034;-88
2022/08/14 08:56:33;;;;;;;7.18;6.15;;;;;;;38.00;22.58;100656.59;4983184;28;20062;-86
2022/08/14 08:58:59;;;;;;;7.07;6.15;;;;;;;38.18;22.42;100665.63;4981815;28;20594;-88
2022/08/14 09:01:30;;;;;;;6.30;5.75;;;;;;;38.60;22.26;100655.41;4986961;28;20220;-90
2022/08/14 09:04:03;;;;;;;8.68;5.93;;;;;;;38.96;22.18;100661.19;4997839;28;20543;-89
2022/08/14 09:06:28;;;;;;;9.35;5.63;;;;;;;38.95;20.47;100658.66;4988852;28;20045;-90
2022/08/14 09:08:53;;;;;;;6.22;5.60;;;;;;;39.39;20.62;100653.59;4982745;28;20476;-91
2022/08/14 09:11:19;;;;;;;6.10;5.55;;;;;;;39.99;20.21;100652.03;4992929;28;20057;-88
2022/08/14 09:13:44;;;;;;;7.43;6.13;;;;;;;40.14;19.15;100656.81;4986424;28;20060;-91
2022/08/14 09:16:10;;;;;;;7.53;5.80;;;;;;;40.10;18.83;100650.13;4987310;28;20026;-88
2022/08/14 09:18:36;;;;;;;8.20;7.45;;;;;;;40.43;20.11;100651.47;4989320;28;20027;-89
2022/08/14 09:21:02;;;;;;;6.60;6.00;;;;;;;40.77;20.11;100640.53;4990238;28;20480;-88
2022/08/14 09:23:27;;;;;;;6.97;5.85;;;;;;;40.72;19.47;100636.91;4988203;28;20073;-89
2022/08/14 09:25:53;;;;;;;7.18;6.47;;;;;;;40.89;19.38;100636.59;4990847;28;20018;-88
2022/08/14 09:28:19;;;;;;;6.30;5.80;;;;;;;40.44;19.34;100624.44;4980942;28;20030;-89
2022/08/14 09:30:49;;;;;;;6.43;5.93;;;;;;;39.81;19.76;100641.44;4992605;28;20054;-86
2022/08/14 09:33:39;;;;;;;6.60;6.10;;;;;;;39.67;20.22;100646.69;4984679;28;20113;-88
2022/08/14 09:36:25;;;;;;;6.60;6.07;;;;;;;40.63;21.03;100636.66;4980050;28;20043;-89
2022/08/14 09:39:15;;;;;;;6.53;5.97;;;;;;;40.40;20.15;100626.09;4989835;28;20057;-89
2022/08/14 09:41:47;;;;;;;7.90;6.07;;;;;;;40.54;20.23;100624.41;4983541;28;20038;-89
2022/08/14 09:44:28;;;;;;;6.70;6.10;;;;;;;40.99;19.00;100617.88;4987364;28;20069;-88
2022/08/14 09:46:55;;;;;;;6.03;5.53;;;;;;;41.74;19.29;100622.47;4989822;28;20030;-86
2022/08/14 09:49:31;;;;;;;6.40;5.90;;;;;;;42.27;18.70;100617.88;4994355;28;20026;-86
2022/08/14 09:52:06;;;;;;;6.32;5.72;;;;;;;42.90;19.37;100614.09;4996708;28;20332;-87
2022/08/14 09:54:39;;;;;;;5.60;5.07;;;;;;;43.62;16.19;100615.91;4990593;28;20240;-90
2022/08/14 09:57:06;;;;;;;5.95;5.22;;;;;;;43.92;16.05;100611.81;5001363;28;20541;-88
2022/08/14 09:59:48;;;;;;;7.38;5.05;;;;;;;44.22;16.58;100619.66;4995632;28;20086;-87
2022/08/14 10:02:29;;;;;;;7.15;6.50;;;;;;;43.82;16.73;100609.97;5010813;28;20081;-88
2022/08/14 10:05:10;;;;;;;5.40;5.00;;;;;;;43.79;16.44;100604.97;5003813;28;20154;-86
2022/08/14 10:07:49;;;;;;;6.07;5.47;;;;;;;44.15;17.44;100598.78;4991302;28;20038;-85
2022/08/14 10:10:51;;;;;;;5.93;5.50;;;;;;;44.47;15.83;100595.91;4984025;28;20034;-87
2022/08/14 10:13:23;;;;;;;6.47;5.53;;;;;;;43.05;16.46;100593.47;4991249;28;20042;-86
2022/08/14 10:15:48;;;;;;;5.72;5.20;;;;;;;42.92;15.88;100588.59;4982471;28;20042;-86
2022/08/14 10:18:20;;;;;;;6.90;4.95;;;;;;;42.58;16.94;100589.53;4985667;28;20403;-87
2022/08/14 10:20:59;;;;;;;5.28;4.88;;;;;;;43.10;16.97;100593.44;4979331;28;20030;-89
2022/08/14 10:23:27;;;;;;;5.95;5.45;;;;;;;42.72;16.23;100579.31;4985529;28;20034;-88
2022/08/14 10:26:04;;;;;;;6.07;5.57;;;;;;;42.14;17.58;100584.13;4979664;28;20027;-88
2022/08/14 10:28:41;;;;;;;6.85;5.43;;;;;;;42.07;17.59;100583.66;4998806;28;20038;-88
2022/08/14 10:31:22;;;;;;;6.00;5.50;;;;;;;42.17;17.44;100575.97;4987534;28;20042;-90
2022/08/14 10:34:01;;;;;;;6.40;5.90;;;;;;;41.36;18.15;100577.47;4991977;28;20038;-89
2022/08/14 10:36:32;;;;;;;8.63;4.95;;;;;;;41.47;17.70;100565.13;4984765;28;20030;-87
2022/08/14 10:39:04;;;;;;;6.05;5.45;;;;;;;42.11;17.33;100571.56;4989666;28;20046;-87
2022/08/14 10:41:41;;;;;;;9.20;5.82;;;;;;;42.90;17.18;100558.09;4979723;28;20037;-87
2022/08/14 10:44:13;;;;;;;5.30;4.80;;;;;;;43.64;15.34;100558.41;4984053;28;20499;-87
2022/08/14 10:46:51;;;;;;;6.03;5.45;;;;;;;42.83;15.97;100562.41;4975591;28;20051;-87
2022/08/14 10:49:21;;;;;;;6.65;4.80;;;;;;;42.26;17.71;100554.66;4984769;28;20029;-86
2022/08/14 10:52:19;;;;;;;4.93;4.53;;;;;;;42.51;17.38;100550.72;4988540;28;20100;-87
2022/08/14 10:54:45;;;;;;;5.50;4.93;;;;;;;41.53;17.57;100544.41;4989078;28;20492;-87
2022/08/14 10:57:26;;;;;;;5.93;5.35;;;;;;;41.92;17.67;100548.28;4981130;28;20053;-85
2022/08/14 10:59:56;;;;;;;6.35;5.00;;;;;;;42.44;16.56;100550.28;4974477;28;20058;-87
2022/08/14 11:02:35;;;;;;;5.45;4.95;;;;;;;43.44;16.23;100556.78;4983991;28;20040;-85
2022/08/14 11:05:07;;;;;;;5.28;4.88;;;;;;;43.74;15.28;100560.22;4986864;28;20369;-88
2022/08/14 11:07:37;;;;;;;5.93;4.90;;;;;;;44.19;15.47;100554.97;4984339;28;20034;-88
2022/08/14 11:10:07;;;;;;;5.25;4.75;;;;;;;44.50;14.95;100555.19;4974172;28;20113;-87
2022/08/14 11:12:45;;;;;;;6.35;4.88;;;;;;;44.31;14.73;100552.47;4993817;28;20038;-87
2022/08/14 11:15:11;;;;;;;4.93;4.47;;;;;;;44.42;14.69;100548.31;4985663;28;20030;-86
2022/08/14 11:17:37;;;;;;;6.03;5.00;;;;;;;44.01;14.80;100545.47;4984370;28;20395;-88
2022/08/14 11:20:06;;;;;;;6.35;5.10;;;;;;;43.17;15.78;100543.44;4985413;28;20027;-86
2022/08/14 11:22:32;;;;;;;4.97;4.68;;;;;;;43.21;15.98;100538.09;4997432;28;20064;-86
2022/08/14 11:25:03;;;;;;;5.32;4.75;;;;;;;42.66;16.51;100546.94;4995022;28;20023;-86
2022/08/14 11:27:30;;;;;;;6.15;4.70;;;;;;;43.05;16.16;100539.44;4981490;28;20037;-87
2022/08/14 11:30:00;;;;;;;5.63;4.45;;;;;;;43.84;14.89;100536.78;4978898;28;20410;-87
2022/08/14 11:32:28;;;;;;;6.75;4.13;;;;;;;44.96;13.69;100535.41;4986165;28;20030;-85
2022/08/14 11:34:53;;;;;;;5.13;4.72;;;;;;;44.82;13.96;100522.56;4978629;28;20034;-86
2022/08/14 11:37:20;;;;;;;4.55;4.15;;;;;;;44.95;14.43;100518.88;4975259;28;20507;-88
2022/08/14 11:39:47;;;;;;;5.20;4.70;;;;;;;44.78;14.96;100508.31;4979057;28;20050;-84
2022/08/14 11:42:20;;;;;;;5.22;4.72;;;;;;;45.16;14.61;100519.25;4996705;28;20023;-86
2022/08/14 11:44:45;;;;;;;4.32;4.03;;;;;;;45.54;13.63;100516.09;4988893;28;20124;-86